createdAt,value
2019-02-11T00:00:47.750Z,4.30
2019-02-11T00:03:18.239Z,4.70
2019-02-11T00:05:49.030Z,4.63
2019-02-11T00:08:18.642Z,4.62
2019-02-11T00:10:48.251Z,4.20
2019-02-11T00:13:17.870Z,4.40
2019-02-11T00:15:47.609Z,3.77
2019-02-11T00:18:17.351Z,4.70
2019-02-11T00:20:46.978Z,3.83
2019-02-11T00:23:16.597Z,3.57
2019-02-11T00:25:46.301Z,4.20
2019-02-11T00:28:15.909Z,4.37
2019-02-11T00:30:45.621Z,3.67
2019-02-11T00:33:15.226Z,4.57
2019-02-11T00:35:44.850Z,3.50
2019-02-11T00:38:14.726Z,3.67
2019-02-11T00:40:44.357Z,3.67
2019-02-11T00:43:19.099Z,4.60
2019-02-11T00:45:45.369Z,4.63
2019-02-11T00:48:15.049Z,3.53
2019-02-11T00:50:44.752Z,4.00
2019-02-11T00:53:14.474Z,3.33
2019-02-11T00:55:44.146Z,3.67
2019-02-11T00:58:14.770Z,4.20
2019-02-11T01:00:44.495Z,3.40
2019-02-11T01:03:14.189Z,3.43
2019-02-11T01:05:43.929Z,3.03
2019-02-11T01:08:13.656Z,2.53
2019-02-11T01:10:43.362Z,2.57
2019-02-11T01:13:13.074Z,2.33
2019-02-11T01:15:43.860Z,3.03
2019-02-11T01:18:13.546Z,3.17
2019-02-11T01:20:43.183Z,2.50
2019-02-11T01:23:12.793Z,3.30
2019-02-11T01:25:42.402Z,3.67
2019-02-11T01:28:12.016Z,2.70
2019-02-11T01:30:41.726Z,2.50
2019-02-11T01:33:11.353Z,2.70
2019-02-11T01:35:41.097Z,2.50
2019-02-11T01:38:10.697Z,2.17
2019-02-11T01:40:40.413Z,2.80
2019-02-11T01:43:10.083Z,2.50
2019-02-11T01:45:39.770Z,2.10
2019-02-11T01:48:09.433Z,2.20
2019-02-11T01:50:39.102Z,2.30
2019-02-11T01:53:08.700Z,1.87
2019-02-11T01:55:38.309Z,2.23
2019-02-11T01:58:07.945Z,2.60
2019-02-11T02:00:37.625Z,2.60
2019-02-11T02:03:08.478Z,1.67
2019-02-11T02:05:38.242Z,1.80
2019-02-11T02:08:07.989Z,1.90
2019-02-11T02:10:37.689Z,2.00
2019-02-11T02:13:08.369Z,1.87
2019-02-11T02:15:38.034Z,2.10
2019-02-11T02:18:07.673Z,1.97
2019-02-11T02:20:37.353Z,1.67
2019-02-11T02:23:07.070Z,2.00
2019-02-11T02:25:36.769Z,1.77
2019-02-11T02:28:06.410Z,1.97
2019-02-11T02:30:36.420Z,1.50
2019-02-11T02:33:06.403Z,2.10
2019-02-11T02:35:36.058Z,1.97
2019-02-11T02:38:05.852Z,2.20
2019-02-11T02:40:35.543Z,2.00
2019-02-11T02:43:05.171Z,1.70
2019-02-11T02:45:34.851Z,1.80
2019-02-11T02:48:04.976Z,1.83
2019-02-11T02:50:34.574Z,2.10
2019-02-11T02:53:04.824Z,2.30
2019-02-11T02:55:36.480Z,2.87
2019-02-11T02:58:06.096Z,2.00
2019-02-11T03:00:35.781Z,1.70
2019-02-11T03:03:05.398Z,1.80
2019-02-11T03:05:35.285Z,3.03
2019-02-11T03:08:05.129Z,1.67
2019-02-11T03:10:34.957Z,1.93
2019-02-11T03:13:05.038Z,2.97
2019-02-11T03:15:34.912Z,2.10
2019-02-11T03:18:05.338Z,2.23
2019-02-11T03:20:35.155Z,2.30
2019-02-11T03:23:05.264Z,2.10
2019-02-11T03:25:35.145Z,1.80
2019-02-11T03:28:04.922Z,2.30
2019-02-11T03:30:35.134Z,2.10
2019-02-11T03:33:05.003Z,2.30
2019-02-11T03:35:38.623Z,2.77
2019-02-11T03:38:08.293Z,1.40
2019-02-11T03:40:37.970Z,2.00
2019-02-11T03:43:07.726Z,1.80
2019-02-11T03:45:37.329Z,1.93
2019-02-11T03:48:08.005Z,1.70
2019-02-11T03:50:37.681Z,2.03
2019-02-11T03:53:07.442Z,2.07
2019-02-11T03:55:37.097Z,2.00
2019-02-11T03:58:06.799Z,1.80
2019-02-11T04:00:36.420Z,3.07
2019-02-11T04:03:06.102Z,2.10
2019-02-11T04:05:37.776Z,2.10
2019-02-11T04:08:07.478Z,2.10
2019-02-11T04:10:37.145Z,2.80
2019-02-11T04:13:06.779Z,2.30
2019-02-11T04:15:36.666Z,1.90
2019-02-11T04:18:06.328Z,1.83
2019-02-11T04:20:36.124Z,2.40
2019-02-11T04:23:05.722Z,2.57
2019-02-11T04:25:35.381Z,2.17
2019-02-11T04:28:05.060Z,1.87
2019-02-11T04:30:34.764Z,2.00
2019-02-11T04:33:04.874Z,1.90
2019-02-11T04:35:34.501Z,2.47
2019-02-11T04:38:04.979Z,3.20
2019-02-11T04:40:34.652Z,2.43
2019-02-11T04:43:05.072Z,2.00
2019-02-11T04:45:34.769Z,2.40
2019-02-11T04:48:04.870Z,2.60
2019-02-11T04:50:34.502Z,2.47
2019-02-11T04:53:04.843Z,2.10
2019-02-11T04:55:34.869Z,1.70
2019-02-11T04:58:05.381Z,3.20
2019-02-11T05:00:35.246Z,2.20
2019-02-11T05:03:04.879Z,2.40
2019-02-11T05:05:34.486Z,2.43
2019-02-11T05:08:04.915Z,2.57
2019-02-11T05:10:34.548Z,3.93
2019-02-11T05:13:04.949Z,2.97
2019-02-11T05:15:34.541Z,2.43
2019-02-11T05:18:04.846Z,2.67
2019-02-11T05:20:34.469Z,2.83
2019-02-11T05:23:04.840Z,2.73
2019-02-11T05:25:34.524Z,2.27
2019-02-11T05:28:04.826Z,4.30
2019-02-11T05:30:34.579Z,2.53
2019-02-11T05:33:05.844Z,4.20
2019-02-11T05:35:35.518Z,3.20
2019-02-11T05:38:05.135Z,2.63
2019-02-11T05:40:35.778Z,2.83
2019-02-11T05:43:17.667Z,2.40
2019-02-11T05:45:47.408Z,3.30
2019-02-11T05:48:17.010Z,2.50
2019-02-11T05:50:46.602Z,2.33
2019-02-11T05:53:16.313Z,3.13
2019-02-11T05:55:45.989Z,4.73
2019-02-11T05:58:15.606Z,3.00
2019-02-11T06:00:45.204Z,2.80
2019-02-11T06:03:15.283Z,2.77
2019-02-11T06:05:44.936Z,2.47
2019-02-11T06:08:14.741Z,2.77
2019-02-11T06:10:44.368Z,3.30
2019-02-11T06:13:14.100Z,2.57
2019-02-11T06:15:43.802Z,3.93
2019-02-11T06:18:13.529Z,2.87
2019-02-11T06:20:43.109Z,2.93
2019-02-11T06:23:12.849Z,2.70
2019-02-11T06:25:42.484Z,2.53
2019-02-11T06:28:12.242Z,2.37
2019-02-11T06:30:41.844Z,2.27
2019-02-11T06:33:14.510Z,3.53
2019-02-11T06:35:44.302Z,2.43
2019-02-11T06:38:13.940Z,3.27
2019-02-11T06:40:43.653Z,2.93
2019-02-11T06:43:14.272Z,2.83
2019-02-11T06:45:43.857Z,2.37
2019-02-11T06:48:13.560Z,2.70
2019-02-11T06:50:43.194Z,2.43
2019-02-11T06:53:12.913Z,3.20
2019-02-11T06:55:42.507Z,2.90
2019-02-11T06:58:12.178Z,4.37
2019-02-11T07:00:41.856Z,3.67
2019-02-11T07:03:12.597Z,2.67
2019-02-11T07:05:42.289Z,3.20
2019-02-11T07:08:11.973Z,3.20
2019-02-11T07:10:41.598Z,3.10
2019-02-11T07:13:11.920Z,2.63
2019-02-11T07:15:41.698Z,2.73
2019-02-11T07:18:11.381Z,3.00
2019-02-11T07:20:41.073Z,2.93
2019-02-11T07:23:11.897Z,2.97
2019-02-11T07:25:41.682Z,3.30
2019-02-11T07:28:11.382Z,3.23
2019-02-11T07:30:41.159Z,3.13
2019-02-11T07:33:11.013Z,3.93
2019-02-11T07:35:40.683Z,2.67
2019-02-11T07:38:10.414Z,3.23
2019-02-11T07:40:40.204Z,3.07
2019-02-11T07:43:22.168Z,2.97
2019-02-11T07:46:01.125Z,3.27
2019-02-11T07:48:30.843Z,2.80
2019-02-11T07:51:00.885Z,2.83
2019-02-11T07:53:31.722Z,3.20
2019-02-11T07:56:02.362Z,3.67
2019-02-11T07:58:32.209Z,2.93
2019-02-11T08:01:01.941Z,3.27
2019-02-11T08:03:31.639Z,3.93
2019-02-11T08:06:01.392Z,2.73
2019-02-11T08:08:31.105Z,3.30
2019-02-11T08:11:00.817Z,2.80
2019-02-11T08:13:30.495Z,3.90
2019-02-11T08:16:00.318Z,2.83
2019-02-11T08:18:30.002Z,3.30
2019-02-11T08:20:59.800Z,2.57
2019-02-11T08:23:29.607Z,1.93
2019-02-11T08:25:59.256Z,2.40
2019-02-11T08:28:29.037Z,2.70
2019-02-11T08:30:58.728Z,3.67
2019-02-11T08:33:30.390Z,2.20
2019-02-11T08:36:00.050Z,2.53
2019-02-11T08:38:29.709Z,2.13
2019-02-11T08:40:59.410Z,2.10
2019-02-11T08:43:29.024Z,1.53
2019-02-11T08:45:58.758Z,1.43
2019-02-11T08:48:28.337Z,1.60
2019-02-11T08:50:58.057Z,1.43
2019-02-11T08:53:27.791Z,1.43
2019-02-11T08:55:57.465Z,1.30
2019-02-11T08:58:27.158Z,1.70
2019-02-11T09:00:56.907Z,2.57
2019-02-11T09:03:27.498Z,1.40
2019-02-11T09:05:57.125Z,1.37
2019-02-11T09:08:26.757Z,1.47
2019-02-11T09:10:56.507Z,1.23
2019-02-11T09:13:27.102Z,1.17
2019-02-11T09:15:56.782Z,1.70
2019-02-11T09:18:26.398Z,1.40
2019-02-11T09:20:56.084Z,1.50
2019-02-11T09:23:25.798Z,1.20
2019-02-11T09:25:55.414Z,1.43
2019-02-11T09:28:25.066Z,1.33
2019-02-11T09:30:54.833Z,1.10
2019-02-11T09:33:24.541Z,1.20
2019-02-11T09:35:54.169Z,0.93
2019-02-11T09:38:24.005Z,1.23
2019-02-11T09:40:53.627Z,1.13
2019-02-11T09:43:23.312Z,1.40
2019-02-11T09:45:54.174Z,1.30
2019-02-11T09:48:23.777Z,1.00
2019-02-11T09:50:53.586Z,1.00
2019-02-11T09:53:23.296Z,1.07
2019-02-11T09:55:52.964Z,1.60
2019-02-11T09:58:23.606Z,1.55
2019-02-11T10:00:53.326Z,1.03
2019-02-11T10:03:23.110Z,1.07
2019-02-11T10:05:52.785Z,0.90
2019-02-11T10:08:22.453Z,1.20
2019-02-11T10:10:52.121Z,1.00
2019-02-11T10:13:21.826Z,1.27
2019-02-11T10:15:51.570Z,0.90
2019-02-11T10:18:21.367Z,1.03
2019-02-11T10:20:50.979Z,1.07
2019-02-11T10:23:20.694Z,0.87
2019-02-11T10:25:50.409Z,1.07
2019-02-11T10:28:20.183Z,1.10
2019-02-11T10:30:49.814Z,0.90
2019-02-11T10:33:19.438Z,1.13
2019-02-11T10:35:49.480Z,1.20
2019-02-11T10:38:19.234Z,1.10
2019-02-11T10:40:50.059Z,1.23
2019-02-11T10:43:19.786Z,1.70
2019-02-11T10:45:49.436Z,1.37
2019-02-11T10:48:19.255Z,0.83
2019-02-11T10:50:48.968Z,1.47
2019-02-11T10:53:18.672Z,1.63
2019-02-11T10:55:48.439Z,1.10
2019-02-11T10:58:18.057Z,0.90
2019-02-11T11:00:47.794Z,0.97
2019-02-11T11:03:17.585Z,1.07
2019-02-11T11:05:47.329Z,1.00
2019-02-11T11:08:17.053Z,1.20
2019-02-11T11:10:47.959Z,1.50
2019-02-11T11:13:17.771Z,1.03
2019-02-11T11:15:47.465Z,1.30
2019-02-11T11:18:17.075Z,1.20
2019-02-11T11:20:46.922Z,0.87
2019-02-11T11:23:16.666Z,1.63
2019-02-11T11:25:47.778Z,1.37
2019-02-11T11:28:17.405Z,1.00
2019-02-11T11:30:47.053Z,1.33
2019-02-11T11:33:16.753Z,1.07
2019-02-11T11:35:46.377Z,0.93
2019-02-11T11:38:15.981Z,1.20
2019-02-11T11:40:45.701Z,1.33
2019-02-11T11:43:15.293Z,1.30
2019-02-11T11:45:44.934Z,1.43
2019-02-11T11:48:14.758Z,1.20
2019-02-11T11:50:44.445Z,1.33
2019-02-11T11:53:14.153Z,1.40
2019-02-11T11:55:44.146Z,1.13
2019-02-11T11:58:13.798Z,1.50
2019-02-11T12:00:43.713Z,1.57
2019-02-11T12:03:13.447Z,1.33
2019-02-11T12:05:43.146Z,1.30
2019-02-11T12:08:12.860Z,1.50
2019-02-11T12:10:42.718Z,1.40
2019-02-11T12:13:22.687Z,1.43
2019-02-11T12:15:43.937Z,1.70
2019-02-11T12:18:13.709Z,1.90
2019-02-11T12:20:43.471Z,1.97
2019-02-11T12:23:13.248Z,1.57
2019-02-11T12:25:43.944Z,1.63
2019-02-11T12:28:13.682Z,2.10
2019-02-11T12:30:43.304Z,2.00
2019-02-11T12:33:13.069Z,1.67
2019-02-11T12:35:42.725Z,1.97
2019-02-11T12:38:12.497Z,1.73
2019-02-11T12:40:42.305Z,1.33
2019-02-11T12:43:11.966Z,1.50
2019-02-11T12:45:41.651Z,1.40
2019-02-11T12:48:11.278Z,1.20
2019-02-11T12:50:41.006Z,1.57
2019-02-11T12:53:11.030Z,1.23
2019-02-11T12:55:41.703Z,1.60
2019-02-11T12:58:11.317Z,1.43
2019-02-11T13:00:41.065Z,1.50
2019-02-11T13:03:10.929Z,1.13
2019-02-11T13:05:45.806Z,1.50
2019-02-11T13:08:12.029Z,1.60
2019-02-11T13:10:41.736Z,3.07
2019-02-11T13:13:11.390Z,2.20
2019-02-11T13:16:00.165Z,1.20
2019-02-11T13:18:12.626Z,1.30
2019-02-11T13:20:42.237Z,2.57
2019-02-11T13:23:11.846Z,1.40
2019-02-11T13:25:41.660Z,1.00
2019-02-11T13:28:11.351Z,1.20
2019-02-11T13:30:42.053Z,1.23
2019-02-11T13:33:11.743Z,1.10
2019-02-11T13:35:41.670Z,1.10
2019-02-11T13:38:11.284Z,1.20
2019-02-11T13:40:41.080Z,1.10
2019-02-11T13:43:10.811Z,1.30
2019-02-11T13:45:41.570Z,1.07
2019-02-11T13:48:11.563Z,1.47
2019-02-11T13:50:41.364Z,1.90
2019-02-11T13:53:11.001Z,1.23
2019-02-11T13:55:40.809Z,2.33
2019-02-11T13:58:10.838Z,1.30
2019-02-11T14:00:42.581Z,1.03
2019-02-11T14:03:12.368Z,1.60
2019-02-11T14:05:42.346Z,1.60
2019-02-11T14:08:11.989Z,1.20
2019-02-11T14:10:41.863Z,1.57
2019-02-11T14:13:11.760Z,1.70
2019-02-11T14:15:41.461Z,1.63
2019-02-11T14:18:14.999Z,2.00
2019-02-11T14:20:43.985Z,1.10
2019-02-11T14:23:13.797Z,1.73
2019-02-11T14:25:46.687Z,1.60
2019-02-11T14:28:15.014Z,2.37
2019-02-11T14:30:44.716Z,2.10
2019-02-11T14:33:18.509Z,2.20
2019-02-11T14:35:48.229Z,1.53
2019-02-11T14:38:18.202Z,1.40
2019-02-11T14:40:49.133Z,1.53
2019-02-11T14:43:18.899Z,1.03
2019-02-11T14:45:48.623Z,1.27
2019-02-11T14:48:27.614Z,1.17
2019-02-11T14:50:50.133Z,1.33
2019-02-11T14:53:20.086Z,1.10
2019-02-11T14:55:49.837Z,1.10
2019-02-11T14:58:19.565Z,1.17
2019-02-11T15:00:49.236Z,0.80
2019-02-11T15:03:19.249Z,1.30
2019-02-11T15:05:48.897Z,1.17
2019-02-11T15:08:18.669Z,1.10
2019-02-11T15:10:48.490Z,1.00
2019-02-11T15:13:18.309Z,1.60
2019-02-11T15:15:48.149Z,1.77
2019-02-11T15:18:17.802Z,1.10
2019-02-11T15:20:48.437Z,1.07
2019-02-11T15:23:21.286Z,1.33
2019-02-11T15:25:50.951Z,1.20
2019-02-11T15:28:20.729Z,1.20
2019-02-11T15:30:51.497Z,1.70
2019-02-11T15:33:21.353Z,1.80
2019-02-11T15:35:51.081Z,1.30
2019-02-11T15:38:20.855Z,1.40
2019-02-11T15:40:50.486Z,2.13
2019-02-11T15:43:21.161Z,1.77
2019-02-11T15:45:50.931Z,1.30
2019-02-11T15:48:20.577Z,3.20
2019-02-11T15:50:50.342Z,1.53
2019-02-11T15:53:20.039Z,1.50
2019-02-11T15:55:49.809Z,1.80
2019-02-11T15:58:19.534Z,2.10
2019-02-11T16:00:49.231Z,2.50
2019-02-11T16:03:18.993Z,2.47
2019-02-11T16:05:49.928Z,3.10
2019-02-11T16:08:19.795Z,2.90
2019-02-11T16:10:49.610Z,1.80
2019-02-11T16:13:21.802Z,1.97
2019-02-11T16:15:51.668Z,1.90
2019-02-11T16:18:21.586Z,2.60
2019-02-11T16:20:51.436Z,2.23
2019-02-11T16:23:21.181Z,2.23
2019-02-11T16:25:50.798Z,2.33
2019-02-11T16:28:20.507Z,2.40
2019-02-11T16:30:50.114Z,2.00
2019-02-11T16:33:19.791Z,1.77
2019-02-11T16:35:49.410Z,1.73
2019-02-11T16:38:19.158Z,2.10
2019-02-11T16:40:48.849Z,1.87
2019-02-11T16:43:18.518Z,1.53
2019-02-11T16:45:48.183Z,1.67
2019-02-11T16:48:17.999Z,1.77
2019-02-11T16:50:47.700Z,2.07
2019-02-11T16:53:17.362Z,2.00
2019-02-11T16:55:47.018Z,2.37
2019-02-11T16:58:16.612Z,1.73
2019-02-11T17:00:46.283Z,1.93
2019-02-11T17:03:15.929Z,2.10
2019-02-11T17:05:45.570Z,3.87
2019-02-11T17:08:15.314Z,2.77
2019-02-11T17:10:46.425Z,2.50
2019-02-11T17:13:16.102Z,2.20
2019-02-11T17:15:45.969Z,2.50
2019-02-11T17:18:15.642Z,4.07
2019-02-11T17:20:45.558Z,2.60
2019-02-11T17:23:16.013Z,1.70
2019-02-11T17:25:45.700Z,2.77
2019-02-11T17:28:15.402Z,2.53
2019-02-11T17:30:46.167Z,2.73
2019-02-11T17:33:15.858Z,2.87
2019-02-11T17:35:45.565Z,2.30
2019-02-11T17:38:15.299Z,3.57
2019-02-11T17:40:45.155Z,2.33
2019-02-11T17:43:14.965Z,2.80
2019-02-11T17:45:44.618Z,2.73
2019-02-11T17:48:14.909Z,2.30
2019-02-11T17:50:46.967Z,1.87
2019-02-11T17:53:17.100Z,3.60
2019-02-11T17:55:47.151Z,2.20
2019-02-11T17:58:16.860Z,2.13
2019-02-11T18:00:50.205Z,1.53
2019-02-11T18:03:20.927Z,1.97
2019-02-11T18:05:50.586Z,2.83
2019-02-11T18:08:20.253Z,3.50
2019-02-11T18:10:49.899Z,3.07
2019-02-11T18:13:19.550Z,2.30
2019-02-11T18:15:49.405Z,2.10
2019-02-11T18:18:19.034Z,2.70
2019-02-11T18:20:48.799Z,2.53
2019-02-11T18:23:18.582Z,4.50
2019-02-11T18:25:48.422Z,1.97
2019-02-11T18:28:18.077Z,1.90
2019-02-11T18:30:47.858Z,2.30
2019-02-11T18:33:17.519Z,2.27
2019-02-11T18:35:47.198Z,2.57
2019-02-11T18:38:17.855Z,2.50
2019-02-11T18:40:47.653Z,2.30
2019-02-11T18:43:17.260Z,2.47
2019-02-11T18:45:46.968Z,2.93
2019-02-11T18:48:16.637Z,2.70
2019-02-11T18:50:46.356Z,1.80
2019-02-11T18:53:17.124Z,2.17
2019-02-11T18:55:46.869Z,2.37
2019-02-11T18:58:16.537Z,2.70
2019-02-11T19:00:46.249Z,2.70
2019-02-11T19:03:16.018Z,2.27
2019-02-11T19:05:45.783Z,2.20
2019-02-11T19:08:15.517Z,2.57
2019-02-11T19:10:45.236Z,2.23
2019-02-11T19:13:15.005Z,2.23
2019-02-11T19:15:44.751Z,1.83
2019-02-11T19:18:14.443Z,1.98
2019-02-11T19:20:44.214Z,2.53
2019-02-11T19:23:13.865Z,1.80
2019-02-11T19:25:43.634Z,1.70
2019-02-11T19:28:13.293Z,1.90
2019-02-11T19:30:43.063Z,1.87
2019-02-11T19:33:12.753Z,2.10
2019-02-11T19:35:43.660Z,1.80
2019-02-11T19:38:13.552Z,2.12
2019-02-11T19:40:43.441Z,1.77
2019-02-11T19:43:13.143Z,1.53
2019-02-11T19:45:42.941Z,1.80
2019-02-11T19:48:12.614Z,1.73
2019-02-11T19:50:42.293Z,2.30
2019-02-11T19:53:12.049Z,2.10
2019-02-11T19:55:41.723Z,2.13
2019-02-11T19:58:11.552Z,2.40
2019-02-11T20:00:41.236Z,2.70
2019-02-11T20:03:10.831Z,2.17
2019-02-11T20:05:40.456Z,2.17
2019-02-11T20:08:10.229Z,1.80
2019-02-11T20:10:39.880Z,2.30
2019-02-11T20:13:09.768Z,2.03
2019-02-11T20:15:39.426Z,3.10
2019-02-11T20:18:10.253Z,2.37
2019-02-11T20:20:39.954Z,2.27
2019-02-11T20:23:09.727Z,2.10
2019-02-11T20:25:39.311Z,2.20
2019-02-11T20:28:09.070Z,2.57
2019-02-11T20:30:38.842Z,2.10
2019-02-11T20:33:08.573Z,3.27
2019-02-11T20:35:38.310Z,2.57
2019-02-11T20:38:08.013Z,2.63
2019-02-11T20:40:37.739Z,2.33
2019-02-11T20:43:07.541Z,2.70
2019-02-11T20:45:56.482Z,2.60
2019-02-11T20:48:27.302Z,3.27
2019-02-11T20:50:56.949Z,2.70
2019-02-11T20:53:26.774Z,1.80
2019-02-11T20:55:56.458Z,2.77
2019-02-11T20:58:27.187Z,2.73
2019-02-11T21:00:56.874Z,2.40
2019-02-11T21:03:26.502Z,2.50
2019-02-11T21:05:56.267Z,2.37
2019-02-11T21:08:26.029Z,2.17
2019-02-11T21:10:56.763Z,2.53
2019-02-11T21:13:26.481Z,2.90
2019-02-11T21:15:56.239Z,2.30
2019-02-11T21:18:26.023Z,2.07
2019-02-11T21:20:55.698Z,2.03
2019-02-11T21:23:25.502Z,1.63
2019-02-11T21:25:55.124Z,2.27
2019-02-11T21:28:24.838Z,2.00
2019-02-11T21:30:54.578Z,2.07
2019-02-11T21:33:24.334Z,2.10
2019-02-11T21:35:54.006Z,2.10
2019-02-11T21:38:23.747Z,2.00
2019-02-11T21:40:53.448Z,2.10
2019-02-11T21:43:23.099Z,1.87
2019-02-11T21:45:52.782Z,1.77
2019-02-11T21:48:22.442Z,2.40
2019-02-11T21:50:52.196Z,3.07
2019-02-11T21:53:21.922Z,1.67
2019-02-11T21:55:51.590Z,2.10
2019-02-11T21:58:21.358Z,1.73
2019-02-11T22:00:51.109Z,2.03
2019-02-11T22:03:20.803Z,2.33
2019-02-11T22:05:50.491Z,2.10
2019-02-11T22:08:20.169Z,2.20
2019-02-11T22:10:49.788Z,2.17
2019-02-11T22:13:19.495Z,2.50
2019-02-11T22:15:49.124Z,2.50
2019-02-11T22:18:18.791Z,1.87
2019-02-11T22:20:48.436Z,2.30
2019-02-11T22:23:18.076Z,1.93
2019-02-11T22:25:47.767Z,2.20
2019-02-11T22:28:17.520Z,2.03
2019-02-11T22:30:47.177Z,1.97
2019-02-11T22:33:16.834Z,2.50
2019-02-11T22:35:46.493Z,3.10
2019-02-11T22:38:16.177Z,2.30
2019-02-11T22:40:45.803Z,1.80
2019-02-11T22:43:15.514Z,2.23
2019-02-11T22:45:45.145Z,2.13
2019-02-11T22:48:14.837Z,2.23
2019-02-11T22:50:44.555Z,2.13
2019-02-11T22:53:15.173Z,2.13
2019-02-11T22:55:44.818Z,2.20
2019-02-11T22:58:14.518Z,1.83
2019-02-11T23:00:51.977Z,1.73
2019-02-11T23:03:21.759Z,1.87
2019-02-11T23:05:51.404Z,2.13
2019-02-11T23:08:21.097Z,2.03
2019-02-11T23:10:50.817Z,1.80
2019-02-11T23:13:20.535Z,2.00
2019-02-11T23:15:50.266Z,2.23
2019-02-11T23:18:19.954Z,2.43
2019-02-11T23:20:52.181Z,1.77
2019-02-11T23:23:20.903Z,1.97
2019-02-11T23:25:50.538Z,2.27
2019-02-11T23:28:20.318Z,1.80
2019-02-11T23:30:49.955Z,1.90
2019-02-11T23:33:19.641Z,1.77
2019-02-11T23:35:49.348Z,2.73
2019-02-11T23:38:19.071Z,2.37
2019-02-11T23:40:48.866Z,1.83
2019-02-11T23:43:18.781Z,1.70
2019-02-11T23:45:48.439Z,2.00
2019-02-11T23:48:18.148Z,1.67
2019-02-11T23:50:47.764Z,1.80
2019-02-11T23:53:17.434Z,2.10
2019-02-11T23:55:47.146Z,2.00
2019-02-11T23:58:16.763Z,2.10
